createdAt,value
2019-06-10T00:01:31.441Z,100297.95
2019-06-10T00:03:57.794Z,100292.31
2019-06-10T00:06:23.386Z,100290.76
2019-06-10T00:08:50.599Z,100282.86
2019-06-10T00:11:16.874Z,100270.53
2019-06-10T00:13:43.626Z,100276.66
2019-06-10T00:16:11.512Z,100275.08
2019-06-10T00:18:42.157Z,100273.11
2019-06-10T00:21:05.536Z,100265.34
2019-06-10T00:23:32.018Z,100269.47
2019-06-10T00:25:57.893Z,100273.48
2019-06-10T00:28:24.294Z,100264.97
2019-06-10T00:30:51.560Z,100257.73
2019-06-10T00:33:17.766Z,100264.70
2019-06-10T00:35:44.494Z,100266.28
2019-06-10T00:38:14.225Z,100258.38
2019-06-10T00:40:37.966Z,100257.19
2019-06-10T00:43:06.577Z,100252.70
2019-06-10T00:45:31.648Z,100252.05
2019-06-10T00:48:08.571Z,100244.34
2019-06-10T00:50:24.950Z,100241.98
2019-06-10T00:52:51.827Z,100241.05
2019-06-10T00:55:21.035Z,100241.59
2019-06-10T00:57:45.165Z,100250.95
2019-06-10T01:00:19.270Z,100251.18
2019-06-10T01:02:40.946Z,100248.73
2019-06-10T01:05:05.370Z,100246.05
2019-06-10T01:07:32.116Z,100251.14
2019-06-10T01:10:00.977Z,100252.58
2019-06-10T01:12:25.606Z,100251.19
2019-06-10T01:14:52.336Z,100242.41
2019-06-10T01:17:21.194Z,100243.80
2019-06-10T01:19:45.813Z,100237.30
2019-06-10T01:22:13.850Z,100222.30
2019-06-10T01:24:40.792Z,100204.39
2019-06-10T01:27:06.022Z,100201.26
2019-06-10T01:29:33.358Z,100195.41
2019-06-10T01:32:01.706Z,100192.16
2019-06-10T01:34:26.821Z,100196.36
2019-06-10T01:36:53.543Z,100203.23
2019-06-10T01:39:22.470Z,100204.25
2019-06-10T01:41:47.054Z,100208.75
2019-06-10T01:44:14.698Z,100237.30
2019-06-10T01:46:41.013Z,100237.30
2019-06-10T01:49:07.270Z,100233.37
2019-06-10T01:51:34.003Z,100244.88
2019-06-10T01:54:01.333Z,100263.45
2019-06-10T01:56:27.479Z,100264.52
2019-06-10T01:58:54.227Z,100269.41
2019-06-10T02:01:41.291Z,100264.00
2019-06-10T02:04:08.264Z,100245.30
2019-06-10T02:06:34.459Z,100252.29
2019-06-10T02:09:04.738Z,100255.66
2019-06-10T02:11:31.831Z,100257.27
2019-06-10T02:14:00.790Z,100240.74
2019-06-10T02:16:25.231Z,100245.00
2019-06-10T02:19:00.176Z,100240.09
2019-06-10T02:21:22.599Z,100233.55
2019-06-10T02:23:45.442Z,100241.36
2019-06-10T02:26:14.923Z,100256.49
2019-06-10T02:28:40.681Z,100260.70
2019-06-10T02:31:05.641Z,100252.81
2019-06-10T02:33:36.408Z,100253.89
2019-06-10T02:35:59.132Z,100252.83
2019-06-10T02:38:34.050Z,100251.82
2019-06-10T02:40:53.833Z,100244.72
2019-06-10T02:43:23.936Z,100236.81
2019-06-10T02:45:46.827Z,100225.55
2019-06-10T02:48:16.152Z,100227.66
2019-06-10T02:50:56.309Z,100224.84
2019-06-10T02:53:30.487Z,100213.64
2019-06-10T02:55:49.778Z,100213.99
2019-06-10T02:58:19.119Z,100223.11
2019-06-10T03:00:48.284Z,100223.73
2019-06-10T03:03:13.501Z,100216.23
2019-06-10T03:05:41.000Z,100223.00
2019-06-10T03:08:04.020Z,100220.06
2019-06-10T03:10:36.109Z,100216.94
2019-06-10T03:12:56.970Z,100202.47
2019-06-10T03:15:26.431Z,100195.41
2019-06-10T03:17:52.129Z,100188.97
2019-06-10T03:20:17.900Z,100183.59
2019-06-10T03:22:43.981Z,100165.87
2019-06-10T03:25:12.968Z,100158.76
2019-06-10T03:27:37.487Z,100141.53
2019-06-10T03:30:14.751Z,100132.97
2019-06-10T03:32:39.470Z,100124.78
2019-06-10T03:34:57.887Z,100127.31
2019-06-10T03:37:27.247Z,100120.92
2019-06-10T03:39:53.082Z,100115.25
2019-06-10T03:42:18.799Z,100101.19
2019-06-10T03:44:44.850Z,100100.92
2019-06-10T03:47:12.151Z,100111.05
2019-06-10T03:49:49.912Z,100110.28
2019-06-10T03:52:05.066Z,100109.32
2019-06-10T03:54:32.582Z,100117.34
2019-06-10T03:56:58.542Z,100105.57
2019-06-10T03:59:27.773Z,100102.63
2019-06-10T04:01:52.974Z,100105.02
2019-06-10T04:04:19.431Z,100103.67
2019-06-10T04:06:45.570Z,100103.98
2019-06-10T04:09:12.313Z,100116.96
2019-06-10T04:11:39.146Z,100120.28
2019-06-10T04:14:05.825Z,100125.64
2019-06-10T04:16:32.860Z,100124.77
2019-06-10T04:18:59.330Z,100116.17
2019-06-10T04:21:27.255Z,100116.44
2019-06-10T04:23:52.949Z,100121.00
2019-06-10T04:26:19.768Z,100114.27
2019-06-10T04:28:46.278Z,100112.29
2019-06-10T04:31:13.318Z,100121.71
2019-06-10T04:33:41.950Z,100126.98
2019-06-10T04:36:06.482Z,100134.38
2019-06-10T04:38:33.214Z,100148.05
2019-06-10T04:40:59.954Z,100157.73
2019-06-10T04:43:27.742Z,100161.00
2019-06-10T04:45:53.461Z,100169.28
2019-06-10T04:48:21.239Z,100170.19
2019-06-10T04:50:46.954Z,100182.78
2019-06-10T04:53:13.681Z,100186.66
2019-06-10T04:55:40.432Z,100204.25
2019-06-10T04:58:07.158Z,100217.88
2019-06-10T05:00:33.902Z,100217.07
2019-06-10T05:03:02.729Z,100216.20
2019-06-10T05:05:28.837Z,100207.94
2019-06-10T05:07:54.221Z,100204.04
2019-06-10T05:10:23.403Z,100204.42
2019-06-10T05:12:47.686Z,100210.88
2019-06-10T05:15:14.430Z,100216.88
2019-06-10T05:17:43.648Z,100216.98
2019-06-10T05:20:08.000Z,100213.48
2019-06-10T05:22:34.718Z,100211.25
2019-06-10T05:25:02.501Z,100210.05
2019-06-10T05:27:28.579Z,100202.76
2019-06-10T05:29:54.986Z,100201.19
2019-06-10T05:32:23.203Z,100199.48
2019-06-10T05:34:48.474Z,100192.41
2019-06-10T05:37:15.286Z,100188.73
2019-06-10T05:39:42.451Z,100185.36
2019-06-10T05:42:08.798Z,100191.55
2019-06-10T05:44:35.546Z,100195.08
2019-06-10T05:47:03.649Z,100204.88
2019-06-10T05:49:29.212Z,100196.78
2019-06-10T05:51:55.822Z,100192.56
2019-06-10T05:54:23.397Z,100194.55
2019-06-10T05:56:49.289Z,100186.89
2019-06-10T05:59:16.036Z,100189.89
2019-06-10T06:01:43.331Z,100197.00
2019-06-10T06:04:09.485Z,100190.47
2019-06-10T06:06:37.408Z,100190.08
2019-06-10T06:09:04.018Z,100196.84
2019-06-10T06:11:33.473Z,100199.41
2019-06-10T06:13:57.515Z,100199.83
2019-06-10T06:16:25.600Z,100204.98
2019-06-10T06:18:52.710Z,100206.42
2019-06-10T06:21:25.229Z,100217.47
2019-06-10T06:23:44.488Z,100223.87
2019-06-10T06:26:16.264Z,100226.64
2019-06-10T06:28:38.301Z,100226.67
2019-06-10T06:31:04.810Z,100228.80
2019-06-10T06:33:34.694Z,100226.23
2019-06-10T06:35:58.310Z,100228.39
2019-06-10T06:38:25.039Z,100221.91
2019-06-10T06:40:53.709Z,100220.22
2019-06-10T06:43:18.564Z,100216.02
2019-06-10T06:45:45.364Z,100210.02
2019-06-10T06:48:12.415Z,100208.25
2019-06-10T06:50:57.314Z,100207.09
2019-06-10T06:53:30.058Z,100204.42
2019-06-10T06:55:33.733Z,100198.19
2019-06-10T06:57:59.058Z,100199.31
2019-06-10T07:00:49.216Z,100209.39
2019-06-10T07:02:59.042Z,100211.59
2019-06-10T07:05:25.835Z,100202.75
2019-06-10T07:07:52.770Z,100194.96
2019-06-10T07:10:19.330Z,100190.72
2019-06-10T07:12:46.066Z,100193.96
2019-06-10T07:15:12.815Z,100184.36
2019-06-10T07:17:41.597Z,100174.22
2019-06-10T07:20:06.402Z,100183.05
2019-06-10T07:22:35.160Z,100188.82
2019-06-10T07:25:04.153Z,100185.50
2019-06-10T07:27:26.594Z,100190.47
2019-06-10T07:29:53.349Z,100195.41
2019-06-10T07:32:22.542Z,100200.55
2019-06-10T07:34:47.089Z,100198.46
2019-06-10T07:37:13.553Z,100202.61
2019-06-10T07:39:41.707Z,100195.48
2019-06-10T07:42:07.131Z,100196.45
2019-06-10T07:44:34.900Z,100195.64
2019-06-10T07:47:02.601Z,100195.21
2019-06-10T07:49:27.430Z,100180.28
2019-06-10T07:51:54.178Z,100170.18
2019-06-10T07:54:23.078Z,100165.84
2019-06-10T07:56:50.523Z,100155.36
2019-06-10T07:59:14.402Z,100155.49
2019-06-10T08:01:45.923Z,100162.64
2019-06-10T08:04:07.910Z,100156.61
2019-06-10T08:06:36.314Z,100156.33
2019-06-10T08:09:02.302Z,100158.86
2019-06-10T08:11:28.157Z,100164.26
2019-06-10T08:13:54.883Z,100167.83
2019-06-10T08:16:23.602Z,100172.63
2019-06-10T08:19:16.128Z,100168.34
2019-06-10T08:21:15.207Z,100165.42
2019-06-10T08:23:45.047Z,100152.12
2019-06-10T08:26:08.810Z,100136.83
2019-06-10T08:28:35.576Z,100156.48
2019-06-10T08:31:03.729Z,100149.59
2019-06-10T08:33:29.075Z,100151.39
2019-06-10T08:36:00.114Z,100168.66
2019-06-10T08:38:23.155Z,100172.66
2019-06-10T08:40:49.623Z,100173.75
2019-06-10T08:43:16.462Z,100183.22
2019-06-10T08:45:44.194Z,100190.91
2019-06-10T08:48:10.039Z,100176.10
2019-06-10T08:50:37.628Z,100159.05
2019-06-10T08:53:13.988Z,100152.81
2019-06-10T08:55:31.226Z,100146.97
2019-06-10T08:57:57.113Z,100145.41
2019-06-10T09:00:25.669Z,100135.63
2019-06-10T09:02:53.664Z,100124.03
2019-06-10T09:05:17.381Z,100127.03
2019-06-10T09:07:49.189Z,100110.50
2019-06-10T09:10:13.416Z,100097.63
2019-06-10T09:12:38.430Z,100088.47
2019-06-10T09:15:04.774Z,100085.26
2019-06-10T09:17:33.821Z,100082.67
2019-06-10T09:19:58.366Z,100078.84
2019-06-10T09:22:25.123Z,100075.72
2019-06-10T09:24:55.403Z,100057.90
2019-06-10T09:27:18.834Z,100050.25
2019-06-10T09:29:49.218Z,100050.67
2019-06-10T09:32:12.538Z,100047.73
2019-06-10T09:34:41.371Z,100048.28
2019-06-10T09:37:05.871Z,100063.14
2019-06-10T09:39:32.926Z,100082.25
2019-06-10T09:42:02.704Z,100087.52
2019-06-10T09:44:26.058Z,100082.72
2019-06-10T09:46:55.932Z,100087.20
2019-06-10T09:49:22.154Z,100101.41
2019-06-10T09:51:49.908Z,100114.13
2019-06-10T09:54:13.440Z,100103.34
2019-06-10T09:56:42.787Z,100109.95
2019-06-10T09:59:07.049Z,100112.31
2019-06-10T10:01:33.794Z,100107.88
2019-06-10T10:04:00.777Z,100102.34
2019-06-10T10:06:27.371Z,100104.13
2019-06-10T10:08:58.169Z,100111.37
2019-06-10T10:11:23.521Z,100111.27
2019-06-10T10:13:49.537Z,100102.22
2019-06-10T10:16:14.523Z,100110.97
2019-06-10T10:18:45.892Z,100105.97
2019-06-10T10:21:08.020Z,100092.71
2019-06-10T10:23:50.027Z,100085.29
2019-06-10T10:26:03.376Z,100080.67
2019-06-10T10:28:28.456Z,100067.86
2019-06-10T10:30:57.739Z,100048.32
2019-06-10T10:33:26.923Z,100024.94
2019-06-10T10:35:49.322Z,100002.05
2019-06-10T10:38:15.423Z,99965.74
2019-06-10T10:40:43.989Z,99927.03
2019-06-10T10:43:24.487Z,99881.75
2019-06-10T10:45:35.807Z,99811.61
2019-06-10T10:48:03.599Z,99837.22
2019-06-10T10:50:34.182Z,99930.05
2019-06-10T10:52:59.460Z,99976.02
2019-06-10T10:55:28.176Z,99982.03
2019-06-10T10:57:56.228Z,99999.91
2019-06-10T11:00:22.714Z,100000.66
2019-06-10T11:02:51.081Z,100021.77
2019-06-10T11:05:33.112Z,100024.52
2019-06-10T11:07:56.994Z,100035.58
2019-06-10T11:10:26.496Z,100031.48
2019-06-10T11:12:55.371Z,100034.38
2019-06-10T11:15:23.165Z,100044.54
2019-06-10T11:17:49.656Z,100059.70
2019-06-10T11:20:17.164Z,100057.26
2019-06-10T11:22:47.512Z,100055.06
2019-06-10T11:25:13.964Z,100048.28
2019-06-10T11:27:43.531Z,100044.31
2019-06-10T11:30:12.467Z,100039.02
2019-06-10T11:32:40.043Z,100020.26
2019-06-10T11:35:08.370Z,100011.78
2019-06-10T11:37:36.325Z,100003.83
2019-06-10T11:40:04.572Z,99992.97
2019-06-10T11:42:33.425Z,99981.75
2019-06-10T11:45:02.749Z,99972.05
2019-06-10T11:47:28.364Z,99962.35
2019-06-10T11:49:56.869Z,99925.64
2019-06-10T11:52:24.618Z,99909.41
2019-06-10T11:55:05.598Z,99924.73
2019-06-10T11:57:20.069Z,99943.84
2019-06-10T11:59:48.032Z,99939.48
2019-06-10T12:02:16.251Z,99945.84
2019-06-10T12:04:44.103Z,99940.02
2019-06-10T12:07:12.844Z,99921.61
2019-06-10T12:09:42.526Z,99928.40
2019-06-10T12:12:08.619Z,99927.92
2019-06-10T12:14:36.362Z,99912.36
2019-06-10T12:17:35.040Z,99901.19
2019-06-10T12:19:34.113Z,99905.49
2019-06-10T12:22:04.621Z,99917.09
2019-06-10T12:24:27.941Z,99922.55
2019-06-10T12:26:58.356Z,99922.52
2019-06-10T12:29:24.004Z,99935.47
2019-06-10T12:31:57.839Z,99943.75
2019-06-10T12:34:22.815Z,99950.63
2019-06-10T12:36:56.194Z,99949.39
2019-06-10T12:39:22.886Z,99969.20
2019-06-10T12:41:49.242Z,99969.45
2019-06-10T12:44:16.978Z,99980.67
2019-06-10T12:46:45.412Z,99980.81
2019-06-10T12:49:18.128Z,99991.91
2019-06-10T12:51:41.591Z,99996.62
2019-06-10T12:54:12.908Z,100005.91
2019-06-10T12:56:38.379Z,100015.47
2019-06-10T12:59:09.877Z,100023.90
2019-06-10T13:01:35.582Z,100025.08
2019-06-10T13:04:07.334Z,100028.38
2019-06-10T13:06:32.479Z,100036.39
2019-06-10T13:09:02.252Z,100028.77
2019-06-10T13:11:28.449Z,100024.58
2019-06-10T13:13:57.833Z,100021.73
2019-06-10T13:16:25.547Z,100019.54
2019-06-10T13:18:55.752Z,100004.70
2019-06-10T13:21:23.646Z,100007.52
2019-06-10T13:23:54.441Z,99991.72
2019-06-10T13:26:24.641Z,99982.77
2019-06-10T13:28:52.734Z,99983.52
2019-06-10T13:31:23.580Z,99986.92
2019-06-10T13:33:49.675Z,99980.06
2019-06-10T13:36:17.085Z,99970.06
2019-06-10T13:38:43.189Z,99953.67
2019-06-10T13:41:09.930Z,99930.36
2019-06-10T13:43:36.682Z,99909.55
2019-06-10T13:46:06.758Z,99897.23
2019-06-10T13:48:32.078Z,99884.41
2019-06-10T13:50:56.942Z,99868.72
2019-06-10T13:53:23.727Z,99863.49
2019-06-10T13:55:56.950Z,99856.71
2019-06-10T13:58:17.289Z,99853.28
2019-06-10T14:00:46.697Z,99870.23
2019-06-10T14:03:17.934Z,99872.03
2019-06-10T14:05:45.153Z,99885.47
2019-06-10T14:08:15.037Z,99899.98
2019-06-10T14:10:38.148Z,99908.36
2019-06-10T14:13:06.656Z,99916.29
2019-06-10T14:15:32.939Z,99930.83
2019-06-10T14:17:58.390Z,99937.81
2019-06-10T14:20:25.223Z,99936.72
2019-06-10T14:22:52.959Z,99933.63
2019-06-10T14:25:18.806Z,99938.88
2019-06-10T14:27:45.623Z,99931.91
2019-06-10T14:30:15.364Z,99940.19
2019-06-10T14:32:39.303Z,99935.25
2019-06-10T14:35:08.465Z,99944.56
2019-06-10T14:37:38.928Z,99934.63
2019-06-10T14:39:59.638Z,99934.04
2019-06-10T14:42:26.941Z,99928.72
2019-06-10T14:44:53.729Z,99921.94
2019-06-10T14:47:22.861Z,99913.65
2019-06-10T14:49:47.342Z,99891.73
2019-06-10T14:52:16.808Z,99877.75
2019-06-10T14:54:42.842Z,99874.86
2019-06-10T14:57:09.339Z,99870.50
2019-06-10T14:59:36.128Z,99864.14
2019-06-10T15:02:02.987Z,99866.46
2019-06-10T15:04:29.953Z,99861.55
2019-06-10T15:06:56.731Z,99853.18
2019-06-10T15:09:23.482Z,99846.72
2019-06-10T15:11:52.156Z,99857.00
2019-06-10T15:14:17.914Z,99861.41
2019-06-10T15:16:44.450Z,99870.87
2019-06-10T15:19:18.404Z,99873.99
2019-06-10T15:21:39.320Z,99867.79
2019-06-10T15:24:07.803Z,99881.06
2019-06-10T15:26:33.330Z,99886.39
2019-06-10T15:29:02.599Z,99894.61
2019-06-10T15:31:27.405Z,99907.26
2019-06-10T15:33:54.371Z,99904.31
2019-06-10T15:36:21.166Z,99911.37
2019-06-10T15:38:47.914Z,99911.42
2019-06-10T15:41:18.293Z,99922.61
2019-06-10T15:43:42.415Z,99919.10
2019-06-10T15:46:09.901Z,99922.88
2019-06-10T15:48:35.807Z,99931.80
2019-06-10T15:51:03.218Z,99931.39
2019-06-10T15:53:29.352Z,99930.75
2019-06-10T15:56:13.425Z,99921.21
2019-06-10T15:58:25.745Z,99914.96
2019-06-10T16:00:49.752Z,99904.90
2019-06-10T16:03:17.723Z,99903.31
2019-06-10T16:05:43.847Z,99904.38
2019-06-10T16:08:12.889Z,99896.09
2019-06-10T16:10:37.491Z,99887.30
2019-06-10T16:13:04.250Z,99872.28
2019-06-10T16:15:33.087Z,99876.48
2019-06-10T16:17:57.779Z,99900.39
2019-06-10T16:20:24.600Z,99904.36
2019-06-10T16:22:52.388Z,99899.80
2019-06-10T16:25:18.262Z,99902.51
2019-06-10T16:27:50.942Z,99913.61
2019-06-10T16:30:13.056Z,99900.16
2019-06-10T16:32:38.582Z,99891.91
2019-06-10T16:35:05.715Z,99880.00
2019-06-10T16:37:32.764Z,99866.86
2019-06-10T16:39:59.219Z,99866.79
2019-06-10T16:42:27.514Z,99871.05
2019-06-10T16:44:52.825Z,99869.41
2019-06-10T16:47:19.460Z,99866.72
2019-06-10T16:49:46.374Z,99856.51
2019-06-10T16:52:13.111Z,99860.12
2019-06-10T16:54:41.933Z,99839.55
2019-06-10T16:57:06.867Z,99842.84
2019-06-10T16:59:33.699Z,99861.42
2019-06-10T17:02:02.271Z,99875.28
2019-06-10T17:04:27.750Z,99885.58
2019-06-10T17:06:54.199Z,99904.36
2019-06-10T17:09:23.070Z,99914.70
2019-06-10T17:11:47.899Z,99916.22
2019-06-10T17:14:14.784Z,99919.98
2019-06-10T17:16:41.590Z,99928.41
2019-06-10T17:19:08.375Z,99925.19
2019-06-10T17:21:35.120Z,99933.33
2019-06-10T17:24:03.415Z,99931.73
2019-06-10T17:26:34.464Z,99939.63
2019-06-10T17:28:55.560Z,99942.88
2019-06-10T17:31:25.797Z,99930.22
2019-06-10T17:33:49.187Z,99929.51
2019-06-10T17:36:15.938Z,99922.99
2019-06-10T17:38:43.098Z,99921.91
2019-06-10T17:41:09.591Z,99919.37
2019-06-10T17:43:36.338Z,99917.73
2019-06-10T17:46:03.438Z,99900.63
2019-06-10T17:48:31.399Z,99900.26
2019-06-10T17:50:56.598Z,99893.36
2019-06-10T17:53:24.268Z,99888.89
2019-06-10T17:55:50.110Z,99892.88
2019-06-10T17:58:31.751Z,99893.04
2019-06-10T18:00:43.614Z,99883.95
2019-06-10T18:03:10.354Z,99879.63
2019-06-10T18:05:37.166Z,99880.00
2019-06-10T18:08:03.906Z,99889.27
2019-06-10T18:10:33.137Z,99886.55
2019-06-10T18:13:04.586Z,99887.58
2019-06-10T18:15:24.218Z,99884.13
2019-06-10T18:17:52.181Z,99880.03
2019-06-10T18:20:17.713Z,99877.56
2019-06-10T18:22:44.470Z,99878.07
2019-06-10T18:25:12.341Z,99876.59
2019-06-10T18:27:37.971Z,99882.47
2019-06-10T18:30:10.849Z,99874.20
2019-06-10T18:32:32.818Z,99873.19
2019-06-10T18:34:58.306Z,99871.23
2019-06-10T18:37:26.455Z,99864.37
2019-06-10T18:39:52.224Z,99866.84
2019-06-10T18:42:18.533Z,99864.39
2019-06-10T18:44:45.263Z,99869.95
2019-06-10T18:47:13.383Z,99875.25
2019-06-10T18:49:38.761Z,99880.29
2019-06-10T18:52:05.495Z,99883.99
2019-06-10T18:54:34.436Z,99882.73
2019-06-10T18:56:59.001Z,99881.99
2019-06-10T18:59:25.755Z,99885.58
2019-06-10T19:01:52.858Z,99884.47
2019-06-10T19:04:19.234Z,99880.34
2019-06-10T19:06:45.981Z,99881.48
2019-06-10T19:09:13.004Z,99877.32
2019-06-10T19:11:40.194Z,99872.59
2019-06-10T19:14:06.298Z,99873.39
2019-06-10T19:16:35.437Z,99883.40
2019-06-10T19:19:02.715Z,99874.62
2019-06-10T19:21:27.008Z,99879.17
2019-06-10T19:23:53.758Z,99887.59
2019-06-10T19:26:22.106Z,99877.47
2019-06-10T19:28:47.281Z,99879.30
2019-06-10T19:31:14.018Z,99890.11
2019-06-10T19:33:44.764Z,99890.80
2019-06-10T19:36:07.526Z,99900.03
2019-06-10T19:38:35.453Z,99896.16
2019-06-10T19:41:02.731Z,99901.68
2019-06-10T19:43:27.725Z,99900.27
2019-06-10T19:45:54.443Z,99901.17
2019-06-10T19:48:21.199Z,99905.48
2019-06-10T19:50:53.076Z,99904.01
2019-06-10T19:53:16.031Z,99905.78
2019-06-10T19:55:44.374Z,99908.59
2019-06-10T19:58:10.535Z,99905.09
2019-06-10T20:00:37.424Z,99905.89
2019-06-10T20:03:03.101Z,99904.98
2019-06-10T20:05:32.391Z,99899.59
2019-06-10T20:07:56.470Z,99895.57
2019-06-10T20:10:23.197Z,99886.09
2019-06-10T20:12:49.942Z,99884.66
2019-06-10T20:15:18.874Z,99878.39
2019-06-10T20:17:45.598Z,99886.41
2019-06-10T20:20:12.761Z,99879.37
2019-06-10T20:22:39.074Z,99879.78
2019-06-10T20:25:05.901Z,99881.66
2019-06-10T20:27:33.072Z,99875.48
2019-06-10T20:30:07.740Z,99868.98
2019-06-10T20:32:26.099Z,99871.59
2019-06-10T20:34:53.023Z,99862.99
2019-06-10T20:37:22.437Z,99860.61
2019-06-10T20:39:47.725Z,99846.91
2019-06-10T20:42:13.096Z,99847.71
2019-06-10T20:44:40.279Z,99860.78
2019-06-10T20:47:06.586Z,99855.81
2019-06-10T20:49:33.369Z,99853.66
2019-06-10T20:52:08.102Z,99861.40
2019-06-10T20:54:26.826Z,99852.97
2019-06-10T20:56:53.708Z,99858.84
2019-06-10T20:59:23.180Z,99857.03
2019-06-10T21:01:48.997Z,99854.09
2019-06-10T21:04:13.781Z,99851.98
2019-06-10T21:06:41.279Z,99855.34
2019-06-10T21:09:07.664Z,99864.00
2019-06-10T21:11:34.386Z,99878.09
2019-06-10T21:14:03.132Z,99894.55
2019-06-10T21:16:27.857Z,99892.44
2019-06-10T21:18:55.447Z,99908.23
2019-06-10T21:21:22.624Z,99918.28
2019-06-10T21:23:49.027Z,99914.09
2019-06-10T21:26:14.886Z,99906.50
2019-06-10T21:28:44.362Z,99901.55
2019-06-10T21:31:08.357Z,99900.63
2019-06-10T21:33:35.098Z,99901.42
2019-06-10T21:36:03.964Z,99885.97
2019-06-10T21:38:28.582Z,99868.12
2019-06-10T21:40:55.314Z,99855.84
2019-06-10T21:43:22.455Z,99848.11
2019-06-10T21:45:54.001Z,99839.03
2019-06-10T21:48:15.649Z,99839.71
2019-06-10T21:50:45.268Z,99841.64
2019-06-10T21:53:09.175Z,99837.28
2019-06-10T21:55:35.929Z,99834.72
2019-06-10T21:58:03.662Z,99844.36
2019-06-10T22:00:34.068Z,99842.30
2019-06-10T22:03:02.182Z,99841.02
2019-06-10T22:05:27.561Z,99843.28
2019-06-10T22:07:56.353Z,99848.78
2019-06-10T22:10:22.893Z,99847.05
2019-06-10T22:12:48.037Z,99841.89
2019-06-10T22:15:14.514Z,99842.64
2019-06-10T22:17:42.516Z,99854.89
2019-06-10T22:20:07.985Z,99856.31
2019-06-10T22:22:34.709Z,99859.03
2019-06-10T22:25:02.987Z,99863.55
2019-06-10T22:27:28.225Z,99852.88
2019-06-10T22:29:56.995Z,99845.52
2019-06-10T22:32:21.701Z,99862.27
2019-06-10T22:34:49.630Z,99864.78
2019-06-10T22:37:15.158Z,99866.71
2019-06-10T22:39:42.174Z,99865.29
2019-06-10T22:42:08.765Z,99862.63
2019-06-10T22:44:35.519Z,99862.65
2019-06-10T22:47:02.915Z,99870.31
2019-06-10T22:49:28.977Z,99870.73
2019-06-10T22:51:58.315Z,99873.05
2019-06-10T22:54:22.438Z,99877.83
2019-06-10T22:56:49.415Z,99874.36
2019-06-10T22:59:15.899Z,99882.00
2019-06-10T23:01:42.646Z,99871.03
2019-06-10T23:04:09.394Z,99868.21
2019-06-10T23:06:36.109Z,99860.03
2019-06-10T23:09:03.005Z,99853.84
2019-06-10T23:11:32.200Z,99842.27
2019-06-10T23:13:56.917Z,99838.61
2019-06-10T23:16:23.233Z,99837.69
2019-06-10T23:18:51.485Z,99841.13
2019-06-10T23:21:16.719Z,99852.27
2019-06-10T23:23:43.457Z,99847.72
2019-06-10T23:26:10.207Z,99841.13
2019-06-10T23:28:36.935Z,99834.26
2019-06-10T23:31:05.243Z,99829.80
2019-06-10T23:33:32.400Z,99817.27
2019-06-10T23:35:58.583Z,99807.28
2019-06-10T23:38:24.075Z,99801.10
2019-06-10T23:40:50.840Z,99786.50
2019-06-10T23:43:17.575Z,99781.16
2019-06-10T23:45:44.339Z,99785.25
2019-06-10T23:48:13.155Z,99784.44
2019-06-10T23:50:37.870Z,99784.70
2019-06-10T23:53:07.807Z,99791.33
2019-06-10T23:55:32.029Z,99792.07
2019-06-10T23:57:58.404Z,99794.41
